createdAt,value
2023-05-11T00:01:47.682Z,102004.84
2023-05-11T00:04:15.228Z,102007.61
2023-05-11T00:06:42.224Z,102008.31
2023-05-11T00:09:09.709Z,102009.16
2023-05-11T00:11:36.570Z,102009.81
2023-05-11T00:14:03.387Z,102008.25
2023-05-11T00:16:30.316Z,102005.28
2023-05-11T00:18:57.137Z,102008.70
2023-05-11T00:21:23.929Z,102005.75
2023-05-11T00:23:51.157Z,102004.67
2023-05-11T00:26:17.953Z,102004.15
2023-05-11T00:28:45.596Z,102002.35
2023-05-11T00:31:12.570Z,102001.45
2023-05-11T00:33:39.360Z,101999.89
2023-05-11T00:36:06.400Z,101998.69
2023-05-11T00:38:33.321Z,101999.73
2023-05-11T00:41:00.304Z,101999.91
2023-05-11T00:43:27.133Z,102001.11
2023-05-11T00:45:53.947Z,102001.45
2023-05-11T00:48:20.763Z,102000.41
2023-05-11T00:50:48.717Z,102001.10
2023-05-11T00:53:15.645Z,101998.73
2023-05-11T00:55:42.587Z,101998.29
2023-05-11T00:58:09.395Z,101995.81
2023-05-11T01:00:37.047Z,101997.89
2023-05-11T01:03:04.401Z,101996.04
2023-05-11T01:05:36.382Z,101996.71
2023-05-11T01:08:05.990Z,101998.30
2023-05-11T01:10:34.605Z,102001.26
2023-05-11T01:13:20.697Z,101995.77
2023-05-11T01:15:51.726Z,101992.85
2023-05-11T01:18:26.887Z,101994.71
2023-05-11T01:20:57.841Z,101996.23
2023-05-11T01:23:34.944Z,101996.10
2023-05-11T01:26:01.729Z,101994.21
2023-05-11T01:28:34.735Z,101995.36
2023-05-11T01:31:09.835Z,101994.84
2023-05-11T01:33:37.782Z,101993.29
2023-05-11T01:36:07.846Z,101991.57
2023-05-11T01:38:39.269Z,101994.16
2023-05-11T01:41:10.262Z,101996.77
2023-05-11T01:43:37.149Z,101995.02
2023-05-11T01:46:03.972Z,101994.09
2023-05-11T01:48:31.478Z,101994.84
2023-05-11T01:50:59.660Z,101992.42
2023-05-11T01:53:26.593Z,101992.60
2023-05-11T01:55:53.438Z,101994.67
2023-05-11T01:58:20.610Z,101992.61
2023-05-11T02:00:48.213Z,101988.62
2023-05-11T02:03:15.221Z,101991.75
2023-05-11T02:05:42.052Z,101988.79
2023-05-11T02:08:09.386Z,101987.59
2023-05-11T02:10:36.333Z,101986.03
2023-05-11T02:13:04.024Z,101985.45
2023-05-11T02:15:31.421Z,101985.42
2023-05-11T02:17:59.199Z,101985.11
2023-05-11T02:20:26.016Z,101982.90
2023-05-11T02:22:53.514Z,101978.42
2023-05-11T02:25:20.825Z,101980.65
2023-05-11T02:27:48.495Z,101981.33
2023-05-11T02:30:15.649Z,101985.66
2023-05-11T02:32:45.133Z,101986.53
2023-05-11T02:35:16.163Z,101990.33
2023-05-11T02:37:43.715Z,101994.30
2023-05-11T02:40:17.719Z,101997.61
2023-05-11T02:42:45.146Z,101999.82
2023-05-11T02:45:14.310Z,101997.90
2023-05-11T02:47:48.462Z,101998.82
2023-05-11T02:50:19.355Z,102001.20
2023-05-11T02:52:46.867Z,102002.73
2023-05-11T02:55:13.849Z,102000.98
2023-05-11T02:57:41.000Z,102004.48
2023-05-11T03:00:08.723Z,102003.10
2023-05-11T03:02:35.997Z,102006.74
2023-05-11T03:05:03.086Z,102007.62
2023-05-11T03:07:29.875Z,102010.05
2023-05-11T03:09:56.688Z,102010.39
2023-05-11T03:12:23.652Z,102012.14
2023-05-11T03:14:50.515Z,102016.98
2023-05-11T03:17:17.453Z,102019.05
2023-05-11T03:19:44.444Z,102022.34
2023-05-11T03:22:11.377Z,102022.35
2023-05-11T03:24:38.675Z,102025.30
2023-05-11T03:27:07.511Z,102025.30
2023-05-11T03:29:38.613Z,102028.98
2023-05-11T03:32:05.856Z,102033.48
2023-05-11T03:34:34.873Z,102038.17
2023-05-11T03:37:01.834Z,102039.91
2023-05-11T03:39:29.751Z,102042.70
2023-05-11T03:41:56.706Z,102042.70
2023-05-11T03:44:23.609Z,102042.88
2023-05-11T03:46:51.045Z,102043.45
2023-05-11T03:49:18.129Z,102047.96
2023-05-11T03:51:45.121Z,102051.45
2023-05-11T03:54:11.956Z,102052.00
2023-05-11T03:56:39.251Z,102056.15
2023-05-11T03:59:06.333Z,102057.54
2023-05-11T04:01:33.173Z,102057.71
2023-05-11T04:04:00.197Z,102062.41
2023-05-11T04:06:28.372Z,102059.26
2023-05-11T04:09:12.150Z,102062.04
2023-05-11T04:11:40.548Z,102062.04
2023-05-11T04:14:07.464Z,102062.38
2023-05-11T04:16:34.479Z,102068.58
2023-05-11T04:19:02.405Z,102071.70
2023-05-11T04:21:29.379Z,102071.86
2023-05-11T04:23:56.533Z,102072.55
2023-05-11T04:26:24.447Z,102077.90
2023-05-11T04:28:51.495Z,102083.95
2023-05-11T04:31:18.297Z,102080.81
2023-05-11T04:33:45.106Z,102082.35
2023-05-11T04:36:12.101Z,102081.83
2023-05-11T04:38:39.318Z,102083.05
2023-05-11T04:41:08.572Z,102084.11
2023-05-11T04:43:35.980Z,102082.69
2023-05-11T04:46:02.941Z,102083.73
2023-05-11T04:48:30.015Z,102087.69
2023-05-11T04:50:57.729Z,102089.89
2023-05-11T04:53:28.889Z,102092.69
2023-05-11T04:55:55.803Z,102090.44
2023-05-11T04:58:22.695Z,102092.48
2023-05-11T05:00:49.618Z,102095.39
2023-05-11T05:03:16.815Z,102098.21
2023-05-11T05:05:43.998Z,102092.80
2023-05-11T05:08:10.814Z,102094.43
2023-05-11T05:10:38.375Z,102099.71
2023-05-11T05:13:05.174Z,102094.46
2023-05-11T05:15:32.180Z,102097.45
2023-05-11T05:17:59.112Z,102097.25
2023-05-11T05:20:26.237Z,102101.36
2023-05-11T05:22:53.147Z,102100.16
2023-05-11T05:25:20.175Z,102102.29
2023-05-11T05:27:47.230Z,102104.88
2023-05-11T05:30:18.434Z,102105.77
2023-05-11T05:32:45.831Z,102101.27
2023-05-11T05:35:13.258Z,102101.84
2023-05-11T05:37:40.875Z,102102.17
2023-05-11T05:40:08.090Z,102104.48
2023-05-11T05:42:40.042Z,102104.33
2023-05-11T05:45:08.532Z,102107.15
2023-05-11T05:47:39.938Z,102106.33
2023-05-11T05:50:07.416Z,102106.54
2023-05-11T05:52:34.308Z,102107.26
2023-05-11T05:55:01.524Z,102107.45
2023-05-11T05:57:30.794Z,102108.68
2023-05-11T05:59:58.422Z,102108.77
2023-05-11T06:02:25.941Z,102108.97
2023-05-11T06:04:55.077Z,102101.05
2023-05-11T06:07:27.540Z,102103.57
2023-05-11T06:09:57.176Z,102101.95
2023-05-11T06:12:24.113Z,102099.11
2023-05-11T06:14:55.293Z,102100.23
2023-05-11T06:17:25.721Z,102100.59
2023-05-11T06:19:52.805Z,102102.34
2023-05-11T06:22:22.325Z,102102.52
2023-05-11T06:24:50.977Z,102100.41
2023-05-11T06:27:18.495Z,102103.85
2023-05-11T06:29:49.156Z,102102.29
2023-05-11T06:32:19.991Z,102102.86
2023-05-11T06:34:51.203Z,102103.56
2023-05-11T06:37:21.213Z,102103.66
2023-05-11T06:39:50.163Z,102099.58
2023-05-11T06:42:17.179Z,102102.48
2023-05-11T06:44:44.055Z,102103.41
2023-05-11T06:47:11.644Z,102099.23
2023-05-11T06:49:47.000Z,102098.54
2023-05-11T06:52:14.760Z,102096.67
2023-05-11T06:54:44.610Z,102095.70
2023-05-11T06:57:12.728Z,102096.63
2023-05-11T06:59:41.303Z,102096.27
2023-05-11T07:02:08.215Z,102092.81
2023-05-11T07:04:36.335Z,102096.64
2023-05-11T07:07:07.503Z,102098.52
2023-05-11T07:09:34.484Z,102100.85
2023-05-11T07:12:01.594Z,102099.67
2023-05-11T07:14:28.648Z,102100.30
2023-05-11T07:16:56.173Z,102099.56
2023-05-11T07:19:26.676Z,102103.33
2023-05-11T07:21:54.098Z,102104.91
2023-05-11T07:24:21.271Z,102104.27
2023-05-11T07:26:50.528Z,102105.46
2023-05-11T07:29:17.646Z,102106.40
2023-05-11T07:31:44.780Z,102108.77
2023-05-11T07:34:11.793Z,102104.48
2023-05-11T07:36:38.854Z,102108.77
2023-05-11T07:39:05.917Z,102110.09
2023-05-11T07:41:32.845Z,102110.99
2023-05-11T07:44:02.929Z,102110.61
2023-05-11T07:46:30.486Z,102108.69
2023-05-11T07:49:14.586Z,102103.68
2023-05-11T07:51:45.861Z,102104.33
2023-05-11T07:54:12.884Z,102104.62
2023-05-11T07:56:40.878Z,102102.58
2023-05-11T07:59:08.088Z,102100.27
2023-05-11T08:01:40.668Z,102100.40
2023-05-11T08:04:10.673Z,102097.81
2023-05-11T08:06:37.760Z,102095.98
2023-05-11T08:09:05.200Z,102094.70
2023-05-11T08:11:32.475Z,102096.09
2023-05-11T08:14:03.416Z,102097.38
2023-05-11T08:16:30.405Z,102100.75
2023-05-11T08:19:00.022Z,102094.62
2023-05-11T08:21:26.906Z,102094.84
2023-05-11T08:23:53.866Z,102094.23
2023-05-11T08:26:21.554Z,102091.98
2023-05-11T08:28:48.461Z,102094.63
2023-05-11T08:31:15.259Z,102096.83
2023-05-11T08:33:42.513Z,102096.75
2023-05-11T08:36:09.764Z,102098.32
2023-05-11T08:38:39.722Z,102099.02
2023-05-11T08:41:07.888Z,102098.36
2023-05-11T08:43:35.595Z,102096.27
2023-05-11T08:46:04.416Z,102095.06
2023-05-11T08:48:31.548Z,102097.42
2023-05-11T08:51:04.808Z,102095.80
2023-05-11T08:53:31.779Z,102098.70
2023-05-11T08:55:59.552Z,102101.44
2023-05-11T08:58:27.591Z,102094.89
2023-05-11T09:00:56.860Z,102090.73
2023-05-11T09:03:24.245Z,102091.98
2023-05-11T09:05:54.358Z,102089.71
2023-05-11T09:08:21.582Z,102088.08
2023-05-11T09:10:49.371Z,102085.70
2023-05-11T09:13:16.714Z,102090.30
2023-05-11T09:15:43.728Z,102088.41
2023-05-11T09:18:13.743Z,102090.27
2023-05-11T09:20:43.382Z,102090.50
2023-05-11T09:23:10.487Z,102094.02
2023-05-11T09:25:39.382Z,102091.90
2023-05-11T09:30:42.534Z,102090.73
2023-05-11T09:33:09.786Z,102090.34
2023-05-11T09:35:40.606Z,102086.90
2023-05-11T09:38:08.420Z,102090.09
2023-05-11T09:40:51.780Z,102084.60
2023-05-11T09:43:23.122Z,102083.55
2023-05-11T09:45:50.716Z,102087.30
2023-05-11T09:48:24.448Z,102085.13
2023-05-11T09:50:52.973Z,102086.02
2023-05-11T09:53:19.910Z,102085.69
2023-05-11T09:55:53.202Z,102086.73
2023-05-11T09:58:20.198Z,102083.33
2023-05-11T10:00:57.058Z,102080.84
2023-05-11T10:03:27.105Z,102078.24
2023-05-11T10:06:00.983Z,102077.39
2023-05-11T10:08:29.630Z,102074.92
2023-05-11T10:10:56.643Z,102072.48
2023-05-11T10:13:27.175Z,102072.91
2023-05-11T10:15:54.584Z,102070.18
2023-05-11T10:18:21.797Z,102066.66
2023-05-11T10:20:51.442Z,102073.05
2023-05-11T10:23:19.991Z,102070.63
2023-05-11T10:25:48.034Z,102073.42
2023-05-11T10:28:15.160Z,102071.53
2023-05-11T10:30:42.113Z,102074.54
2023-05-11T10:33:09.348Z,102073.92
2023-05-11T10:35:37.221Z,102076.05
2023-05-11T10:38:04.071Z,102076.44
2023-05-11T10:40:31.436Z,102074.64
2023-05-11T10:43:11.282Z,102071.69
2023-05-11T10:45:41.961Z,102070.95
2023-05-11T10:48:21.325Z,102074.11
2023-05-11T10:50:53.793Z,102073.12
2023-05-11T10:53:39.729Z,102065.13
2023-05-11T10:56:12.439Z,102058.84
2023-05-11T10:58:58.176Z,102057.05
2023-05-11T11:01:31.573Z,102056.17
2023-05-11T11:03:59.681Z,102053.36
2023-05-11T11:06:31.282Z,102050.39
2023-05-11T11:09:16.057Z,102046.53
2023-05-11T11:11:46.844Z,102050.45
2023-05-11T11:14:14.481Z,102048.30
2023-05-11T11:16:42.062Z,102050.85
2023-05-11T11:19:28.129Z,102050.89
2023-05-11T11:22:00.326Z,102044.29
2023-05-11T11:24:39.722Z,102042.02
2023-05-11T11:27:06.850Z,102041.56
2023-05-11T11:29:36.623Z,102040.67
2023-05-11T11:32:27.768Z,102041.26
2023-05-11T11:34:54.777Z,102042.20
2023-05-11T11:37:22.911Z,102039.30
2023-05-11T11:39:50.570Z,102039.08
2023-05-11T11:42:19.122Z,102041.73
2023-05-11T11:44:46.268Z,102040.48
2023-05-11T11:47:14.106Z,102042.41
2023-05-11T11:49:45.452Z,102042.65
2023-05-11T11:52:13.688Z,102044.08
2023-05-11T11:54:41.011Z,102039.73
2023-05-11T11:57:26.894Z,102036.17
2023-05-11T11:59:54.036Z,102031.15
2023-05-11T12:02:21.035Z,102031.88
2023-05-11T12:04:52.370Z,102030.25
2023-05-11T12:07:19.643Z,102028.27
2023-05-11T12:09:47.329Z,102031.83
2023-05-11T12:12:16.977Z,102032.38
2023-05-11T12:14:49.510Z,102030.08
2023-05-11T12:17:23.254Z,102029.23
2023-05-11T12:19:50.325Z,102025.24
2023-05-11T12:22:24.207Z,102023.94
2023-05-11T12:24:51.332Z,102028.81
2023-05-11T12:27:21.168Z,102027.44
2023-05-11T12:29:49.054Z,102028.19
2023-05-11T12:32:16.004Z,102026.29
2023-05-11T12:34:51.581Z,102023.33
2023-05-11T12:37:18.496Z,102025.09
2023-05-11T12:39:46.655Z,102028.47
2023-05-11T12:42:13.484Z,102031.77
2023-05-11T12:44:40.400Z,102029.64
2023-05-11T12:47:07.540Z,102024.31
2023-05-11T12:49:34.488Z,102022.54
2023-05-11T12:52:02.956Z,102018.58
2023-05-11T12:54:33.390Z,102015.44
2023-05-11T12:57:00.992Z,102012.86
2023-05-11T12:59:30.112Z,102006.95
2023-05-11T13:02:16.279Z,102006.54
2023-05-11T13:04:43.754Z,102010.54
2023-05-11T13:07:11.013Z,102008.86
2023-05-11T13:09:38.177Z,102009.15
2023-05-11T13:12:08.382Z,102010.08
2023-05-11T13:14:35.423Z,102004.58
2023-05-11T13:17:02.612Z,102002.30
2023-05-11T13:19:29.776Z,102003.95
2023-05-11T13:21:57.871Z,102004.48
2023-05-11T13:24:25.525Z,102005.38
2023-05-11T13:26:54.776Z,102006.63
2023-05-11T13:29:21.917Z,102005.41
2023-05-11T13:31:49.495Z,102007.66
2023-05-11T13:34:18.956Z,102006.39
2023-05-11T13:36:46.154Z,102007.24
2023-05-11T13:39:13.054Z,102009.02
2023-05-11T13:41:39.952Z,102007.48
2023-05-11T13:44:07.378Z,102001.61
2023-05-11T13:46:34.416Z,102001.52
2023-05-11T13:49:01.627Z,101998.60
2023-05-11T13:51:28.522Z,101999.75
2023-05-11T13:53:55.935Z,102003.70
2023-05-11T13:56:23.130Z,102003.27
2023-05-11T13:58:49.956Z,102007.95
2023-05-11T14:01:17.328Z,102007.23
2023-05-11T14:03:44.349Z,102007.67
2023-05-11T14:06:11.477Z,102001.80
2023-05-11T14:08:38.576Z,102001.30
2023-05-11T14:11:05.743Z,102003.08
2023-05-11T14:13:32.665Z,102005.39
2023-05-11T14:15:59.505Z,102000.01
2023-05-11T14:18:26.794Z,102001.23
2023-05-11T14:20:54.305Z,101997.83
2023-05-11T14:23:21.673Z,101998.95
2023-05-11T14:25:48.765Z,101999.98
2023-05-11T14:28:15.718Z,101998.77
2023-05-11T14:30:42.746Z,102002.91
2023-05-11T14:33:09.618Z,101999.95
2023-05-11T14:35:39.015Z,102004.20
2023-05-11T14:38:06.841Z,102004.63
2023-05-11T14:40:33.744Z,102004.80
2023-05-11T14:43:01.578Z,102004.09
2023-05-11T14:45:34.583Z,102003.41
2023-05-11T14:48:01.441Z,102004.58
2023-05-11T14:50:28.280Z,101998.77
2023-05-11T14:52:57.984Z,101995.52
2023-05-11T14:55:24.809Z,101992.40
2023-05-11T14:57:51.745Z,101987.83
2023-05-11T15:00:18.792Z,101988.47
2023-05-11T15:02:45.969Z,101987.98
2023-05-11T15:05:13.139Z,101989.77
2023-05-11T15:07:40.235Z,101989.42
2023-05-11T15:10:07.719Z,101988.31
2023-05-11T15:12:34.704Z,101987.74
2023-05-11T15:15:01.730Z,101989.25
2023-05-11T15:17:28.634Z,101992.95
2023-05-11T15:19:55.684Z,101994.98
2023-05-11T15:22:22.765Z,101993.59
2023-05-11T15:24:49.815Z,101992.48
2023-05-11T15:27:16.807Z,101990.75
2023-05-11T15:29:43.636Z,101985.87
2023-05-11T15:32:11.871Z,101988.58
2023-05-11T15:34:47.467Z,101987.66
2023-05-11T15:37:25.411Z,101984.73
2023-05-11T15:39:52.439Z,101984.16
2023-05-11T15:42:19.430Z,101983.56
2023-05-11T15:44:46.347Z,101979.75
2023-05-11T15:47:13.317Z,101982.10
2023-05-11T15:49:40.127Z,101978.73
2023-05-11T15:52:07.224Z,101979.77
2023-05-11T15:54:35.995Z,101980.32
2023-05-11T15:57:03.255Z,101981.91
2023-05-11T15:59:32.645Z,101982.61
2023-05-11T16:01:59.676Z,101984.29
2023-05-11T16:04:26.915Z,101984.40
2023-05-11T16:06:53.689Z,101983.91
2023-05-11T16:09:20.635Z,101986.32
2023-05-11T16:11:47.517Z,101986.02
2023-05-11T16:14:14.424Z,101982.04
2023-05-11T16:16:41.797Z,101984.38
2023-05-11T16:19:08.915Z,101986.09
2023-05-11T16:21:36.236Z,101985.02
2023-05-11T16:24:03.148Z,101988.80
2023-05-11T16:26:31.010Z,101989.62
2023-05-11T16:28:58.340Z,101994.31
2023-05-11T16:31:25.310Z,101996.79
2023-05-11T16:33:52.278Z,102001.34
2023-05-11T16:36:19.126Z,102001.52
2023-05-11T16:38:47.091Z,102007.10
2023-05-11T16:41:14.621Z,102007.08
2023-05-11T16:43:41.967Z,102008.33
2023-05-11T16:46:09.119Z,102011.86
2023-05-11T16:48:36.020Z,102013.22
2023-05-11T16:51:03.597Z,102011.66
2023-05-11T16:53:30.494Z,102012.40
2023-05-11T16:55:57.453Z,102014.62
2023-05-11T16:58:24.306Z,102012.76
2023-05-11T17:00:51.690Z,102016.85
2023-05-11T17:03:18.703Z,102013.56
2023-05-11T17:05:46.161Z,102016.36
2023-05-11T17:08:13.108Z,102014.40
2023-05-11T17:10:40.323Z,102015.20
2023-05-11T17:13:07.669Z,102016.53
2023-05-11T17:15:34.593Z,102018.38
2023-05-11T17:18:01.446Z,102019.25
2023-05-11T17:20:28.388Z,102018.66
2023-05-11T17:22:55.975Z,102016.80
2023-05-11T17:25:22.838Z,102023.99
2023-05-11T17:27:49.641Z,102025.70
2023-05-11T17:30:17.626Z,102028.92
2023-05-11T17:32:45.127Z,102030.17
2023-05-11T17:35:12.736Z,102033.92
2023-05-11T17:37:40.039Z,102033.73
2023-05-11T17:40:07.585Z,102033.45
2023-05-11T17:42:34.915Z,102033.66
2023-05-11T17:45:02.243Z,102035.70
2023-05-11T17:47:29.126Z,102039.75
2023-05-11T17:49:56.535Z,102038.59
2023-05-11T17:52:24.073Z,102040.85
2023-05-11T17:54:50.974Z,102042.17
2023-05-11T17:57:17.922Z,102043.27
2023-05-11T17:59:45.821Z,102044.52
2023-05-11T18:02:12.883Z,102047.17
2023-05-11T18:04:42.066Z,102045.91
2023-05-11T18:07:09.345Z,102047.96
2023-05-11T18:09:36.251Z,102050.20
2023-05-11T18:12:04.447Z,102054.02
2023-05-11T18:14:31.267Z,102055.05
2023-05-11T18:16:58.114Z,102055.13
2023-05-11T18:19:25.059Z,102056.59
2023-05-11T18:21:52.325Z,102056.83
2023-05-11T18:24:19.322Z,102057.71
2023-05-11T18:26:46.275Z,102059.10
2023-05-11T18:29:13.409Z,102062.05
2023-05-11T18:31:40.380Z,102056.13
2023-05-11T18:34:07.478Z,102057.71
2023-05-11T18:36:34.730Z,102059.46
2023-05-11T18:39:01.614Z,102058.45
2023-05-11T18:41:28.518Z,102059.70
2023-05-11T18:43:55.377Z,102060.83
2023-05-11T18:46:22.450Z,102060.80
2023-05-11T18:48:50.670Z,102061.84
2023-05-11T18:51:19.509Z,102061.72
2023-05-11T18:53:46.275Z,102062.23
2023-05-11T18:56:13.077Z,102062.61
2023-05-11T18:58:39.882Z,102063.97
2023-05-11T19:01:07.481Z,102060.81
2023-05-11T19:03:34.353Z,102056.70
2023-05-11T19:06:02.091Z,102058.46
2023-05-11T19:08:29.540Z,102057.98
2023-05-11T19:10:56.363Z,102055.39
2023-05-11T19:13:23.309Z,102056.60
2023-05-11T19:15:50.394Z,102054.81
2023-05-11T19:18:17.947Z,102057.73
2023-05-11T19:20:44.953Z,102054.58
2023-05-11T19:23:11.802Z,102053.99
2023-05-11T19:25:38.614Z,102055.73
2023-05-11T19:28:05.683Z,102056.83
2023-05-11T19:30:32.464Z,102059.53
2023-05-11T19:32:59.378Z,102057.80
2023-05-11T19:35:28.338Z,102054.40
2023-05-11T19:37:55.318Z,102057.48
2023-05-11T19:42:54.661Z,102053.73
2023-05-11T19:45:21.540Z,102049.89
2023-05-11T19:47:48.424Z,102048.00
2023-05-11T19:50:15.403Z,102050.65
2023-05-11T19:52:42.189Z,102048.91
2023-05-11T19:55:09.052Z,102043.05
2023-05-11T19:57:37.779Z,102048.34
2023-05-11T20:00:05.475Z,102044.77
2023-05-11T20:02:32.583Z,102041.16
2023-05-11T20:04:59.826Z,102043.09
2023-05-11T20:07:27.680Z,102041.92
2023-05-11T20:09:54.757Z,102038.47
2023-05-11T20:12:21.734Z,102039.05
2023-05-11T20:14:48.591Z,102040.29
2023-05-11T20:17:15.548Z,102040.33
2023-05-11T20:19:42.384Z,102042.61
2023-05-11T20:22:09.344Z,102040.23
2023-05-11T20:24:36.850Z,102039.04
2023-05-11T20:27:09.641Z,102043.75
2023-05-11T20:29:36.560Z,102044.46
2023-05-11T20:32:03.493Z,102045.86
2023-05-11T20:34:30.575Z,102044.30
2023-05-11T20:36:57.422Z,102044.27
2023-05-11T20:39:24.286Z,102045.41
2023-05-11T20:41:51.196Z,102045.30
2023-05-11T20:44:18.601Z,102044.77
2023-05-11T20:46:46.207Z,102047.70
2023-05-11T20:49:20.158Z,102047.71
2023-05-11T20:51:54.570Z,102047.71
2023-05-11T20:54:22.785Z,102046.33
2023-05-11T20:56:50.091Z,102047.92
2023-05-11T21:01:47.087Z,102046.41
2023-05-11T21:04:13.960Z,102049.55
2023-05-11T21:06:41.524Z,102051.11
2023-05-11T21:09:09.206Z,102046.45
2023-05-11T21:11:36.056Z,102047.33
2023-05-11T21:14:02.993Z,102046.30
2023-05-11T21:16:30.137Z,102044.57
2023-05-11T21:18:57.064Z,102047.67
2023-05-11T21:21:24.310Z,102045.42
2023-05-11T21:23:51.339Z,102050.26
2023-05-11T21:26:18.132Z,102053.87
2023-05-11T21:28:44.900Z,102049.71
2023-05-11T21:31:11.735Z,102052.91
2023-05-11T21:33:38.779Z,102049.88
2023-05-11T21:36:06.314Z,102053.03
2023-05-11T21:38:33.146Z,102050.80
2023-05-11T21:41:00.025Z,102046.60
2023-05-11T21:43:26.812Z,102047.51
2023-05-11T21:45:53.741Z,102048.18
2023-05-11T21:48:21.138Z,102045.13
2023-05-11T21:50:54.764Z,102046.55
2023-05-11T21:53:21.994Z,102046.21
2023-05-11T21:55:49.487Z,102044.65
2023-05-11T21:58:16.460Z,102043.60
2023-05-11T22:00:43.234Z,102040.16
2023-05-11T22:03:10.129Z,102043.80
2023-05-11T22:05:36.988Z,102041.88
2023-05-11T22:08:14.245Z,102045.17
2023-05-11T22:10:43.221Z,102044.81
2023-05-11T22:13:10.010Z,102046.71
2023-05-11T22:15:36.848Z,102045.69
2023-05-11T22:18:03.797Z,102045.01
2023-05-11T22:20:31.802Z,102045.55
2023-05-11T22:22:59.439Z,102045.56
2023-05-11T22:25:26.682Z,102043.66
2023-05-11T22:27:53.809Z,102047.31
2023-05-11T22:30:21.238Z,102049.04
2023-05-11T22:32:48.261Z,102049.75
2023-05-11T22:35:15.100Z,102049.45
2023-05-11T22:37:41.972Z,102049.27
2023-05-11T22:40:09.684Z,102051.16
2023-05-11T22:42:36.540Z,102047.17
2023-05-11T22:45:03.386Z,102048.38
2023-05-11T22:47:30.273Z,102043.90
2023-05-11T22:49:57.030Z,102049.12
2023-05-11T22:52:23.908Z,102051.73
2023-05-11T22:54:54.932Z,102049.13
2023-05-11T22:57:24.206Z,102043.77
2023-05-11T22:59:51.091Z,102047.92
2023-05-11T23:02:18.296Z,102047.25
2023-05-11T23:04:48.871Z,102050.55
2023-05-11T23:07:15.674Z,102049.52
2023-05-11T23:09:42.556Z,102053.00
2023-05-11T23:12:09.366Z,102051.64
2023-05-11T23:14:36.645Z,102049.20
2023-05-11T23:17:03.463Z,102048.01
2023-05-11T23:19:30.370Z,102050.77
2023-05-11T23:21:57.327Z,102054.95
2023-05-11T23:24:24.253Z,102053.92
2023-05-11T23:26:50.994Z,102057.56
2023-05-11T23:29:17.860Z,102057.89
2023-05-11T23:31:45.017Z,102057.72
2023-05-11T23:34:11.833Z,102060.85
2023-05-11T23:36:38.929Z,102058.91
2023-05-11T23:39:06.233Z,102060.83
2023-05-11T23:41:32.971Z,102063.43
2023-05-11T23:44:00.673Z,102063.08
2023-05-11T23:46:27.530Z,102066.37
2023-05-11T23:48:55.902Z,102063.08
2023-05-11T23:51:22.687Z,102062.39
2023-05-11T23:53:49.533Z,102062.91
2023-05-11T23:56:16.462Z,102062.56
2023-05-11T23:58:45.865Z,102058.92
